Time;durP1;ratioP1;P1;durP2;ratioP2;P2;SDS_P1;SDS_P2;PMS_P1;PMS_P2;Temp;Humidity;BMP_temperature;BMP_pressure;BME280_temperature;BME280_humidity;BME280_pressure;Samples;Min_cycle;Max_cycle;Signal;HPM_P1;HPM_P2
2021/03/09 05:11:23;;;;;;;1.37;1.37;;;0.80;99.10;;;;;;5558290;23;20707;-79
2021/03/09 05:13:49;;;;;;;1.33;1.33;;;0.90;98.60;;;;;;5018778;28;20207;-78
2021/03/09 05:16:16;;;;;;;1.40;1.40;;;0.70;98.80;;;;;;5018885;28;20231;-79
2021/03/09 05:18:43;;;;;;;1.40;1.40;;;0.80;98.90;;;;;;5017997;28;20213;-79
2021/03/09 05:21:19;;;;;;;1.47;1.47;;;0.50;98.70;;;;;;5014199;28;20699;-77
2021/03/09 05:23:46;;;;;;;1.27;1.27;;;0.80;98.30;;;;;;5014135;28;20261;-77
2021/03/09 05:26:13;;;;;;;1.43;1.43;;;0.80;98.40;;;;;;5014254;28;20207;-78
2021/03/09 05:28:41;;;;;;;1.20;1.20;;;0.70;98.80;;;;;;5014647;28;20679;-77
2021/03/09 05:31:08;;;;;;;1.53;1.53;;;0.70;98.90;;;;;;5014722;28;20234;-80
2021/03/09 05:33:35;;;;;;;1.30;1.30;;;0.80;98.80;;;;;;5003825;28;20628;-78
2021/03/09 05:36:01;;;;;;;1.40;1.40;;;0.40;98.70;;;;;;5005392;28;20253;-77
2021/03/09 05:38:28;;;;;;;1.20;1.20;;;0.90;98.70;;;;;;5005756;28;20207;-77
2021/03/09 05:40:55;;;;;;;1.30;1.30;;;0.70;98.60;;;;;;5009297;28;20731;-77
2021/03/09 05:43:22;;;;;;;1.50;1.50;;;0.60;98.70;;;;;;5008436;28;20616;-77
2021/03/09 05:45:51;;;;;;;1.50;1.50;;;0.60;98.70;;;;;;5005120;28;20203;-78
2021/03/09 05:48:18;;;;;;;1.60;1.60;;;0.60;98.90;;;;;;5017189;28;20209;-78
2021/03/09 05:50:44;;;;;;;1.30;1.30;;;0.80;99.00;;;;;;5021281;28;20633;-79
2021/03/09 05:53:11;;;;;;;1.50;1.50;;;0.90;98.70;;;;;;5033653;28;20203;-77
2021/03/09 05:55:38;;;;;;;1.30;1.30;;;1.10;98.10;;;;;;5032699;28;20625;-77
2021/03/09 05:58:05;;;;;;;1.10;1.10;;;1.20;97.90;;;;;;5034026;28;20203;-79
2021/03/09 06:00:32;;;;;;;1.40;1.40;;;1.30;97.90;;;;;;5016409;28;20270;-78
2021/03/09 06:03:01;;;;;;;1.40;1.40;;;1.40;97.80;;;;;;5013088;28;20200;-76
2021/03/09 06:05:28;;;;;;;1.37;1.37;;;1.50;97.70;;;;;;4993448;28;20200;-77
2021/03/09 06:07:55;;;;;;;1.30;1.30;;;1.50;97.60;;;;;;5002591;28;20211;-77
2021/03/09 06:10:23;;;;;;;1.50;1.50;;;1.50;99.90;;;;;;5010463;28;20199;-77
2021/03/09 06:12:51;;;;;;;1.20;1.20;;;1.60;97.30;;;;;;5016110;28;20778;-77
2021/03/09 06:15:18;;;;;;;1.20;1.20;;;1.70;96.90;;;;;;5030923;28;20245;-77
2021/03/09 06:17:54;;;;;;;1.30;1.30;;;1.90;97.00;;;;;;5030609;28;20249;-79
2021/03/09 06:20:24;;;;;;;1.30;1.30;;;2.00;99.90;;;;;;5031933;28;20202;-78
2021/03/09 06:22:52;;;;;;;1.30;1.30;;;1.70;96.50;;;;;;5030676;28;20202;-77
2021/03/09 06:25:21;;;;;;;1.47;1.47;;;2.00;96.60;;;;;;5031608;28;20198;-77
2021/03/09 06:27:48;;;;;;;1.10;1.10;;;2.00;96.20;;;;;;5031601;28;20206;-78
2021/03/09 06:30:31;;;;;;;1.10;1.10;;;2.30;99.90;;;;;;5031564;28;20195;-78
2021/03/09 06:32:59;;;;;;;1.30;1.30;;;2.30;96.10;;;;;;5032747;28;20697;-78
2021/03/09 06:35:34;;;;;;;1.20;1.20;;;2.30;95.80;;;;;;5032561;28;20268;-78
2021/03/09 06:38:16;;;;;;;1.23;1.23;;;2.40;95.30;;;;;;5032938;28;20206;-78
2021/03/09 06:40:43;;;;;;;1.70;1.70;;;2.40;96.80;;;;;;5032986;28;20229;-78
2021/03/09 06:43:15;;;;;;;1.37;1.37;;;2.30;95.70;;;;;;5032653;28;20260;-78
2021/03/09 06:45:42;;;;;;;1.33;1.33;;;2.20;95.80;;;;;;5034590;28;20206;-78
2021/03/09 06:48:19;;;;;;;1.63;1.63;;;2.40;94.90;;;;;;5036405;28;20584;-78
2021/03/09 06:50:47;;;;;;;1.30;1.30;;;2.30;95.00;;;;;;5036580;28;20272;-78
2021/03/09 06:53:26;;;;;;;1.23;1.23;;;2.30;94.60;;;;;;5035983;28;20276;-78
2021/03/09 06:55:53;;;;;;;1.33;1.33;;;2.10;95.40;;;;;;5036246;28;20675;-77
2021/03/09 06:58:28;;;;;;;1.40;1.40;;;2.20;95.40;;;;;;5036562;28;20203;-77
2021/03/09 07:00:54;;;;;;;1.40;1.40;;;2.20;95.00;;;;;;5036125;28;20288;-77
2021/03/09 07:03:34;;;;;;;1.40;1.40;;;2.30;95.30;;;;;;5035505;28;20202;-77
2021/03/09 07:06:03;;;;;;;1.30;1.30;;;2.30;94.80;;;;;;5036251;28;20202;-78
2021/03/09 07:08:30;;;;;;;1.50;1.50;;;2.30;94.80;;;;;;5035661;28;20256;-77
2021/03/09 07:10:58;;;;;;;1.37;1.37;;;2.30;95.40;;;;;;5035729;28;20223;-76
2021/03/09 07:13:27;;;;;;;1.30;1.30;;;2.30;94.80;;;;;;5035451;28;20202;-77
2021/03/09 07:15:55;;;;;;;1.40;1.40;;;2.60;94.60;;;;;;5035371;28;20260;-77
2021/03/09 07:18:23;;;;;;;1.30;1.30;;;2.70;94.60;;;;;;5035545;28;20210;-78
2021/03/09 07:20:56;;;;;;;1.20;1.20;;;3.20;94.60;;;;;;5035913;28;20230;-77
2021/03/09 07:23:25;;;;;;;1.30;1.30;;;2.70;94.40;;;;;;5035486;28;20605;-77
2021/03/09 07:25:55;;;;;;;1.40;1.40;;;3.00;94.10;;;;;;5035520;28;20280;-78
2021/03/09 07:28:23;;;;;;;1.50;1.50;;;3.00;94.10;;;;;;5035270;28;20268;-77
2021/03/09 07:30:52;;;;;;;1.30;1.30;;;3.10;93.90;;;;;;5035030;28;20226;-78
2021/03/09 07:33:19;;;;;;;1.50;1.50;;;3.10;93.50;;;;;;5035096;28;20206;-78
2021/03/09 07:35:47;;;;;;;1.40;1.40;;;3.30;93.50;;;;;;5035657;28;20206;-78
2021/03/09 07:38:18;;;;;;;1.43;1.43;;;3.40;93.50;;;;;;5034970;28;20206;-78
2021/03/09 07:40:46;;;;;;;1.30;1.30;;;3.40;93.40;;;;;;5035157;28;20273;-78
2021/03/09 07:43:13;;;;;;;1.40;1.40;;;3.20;93.10;;;;;;5034890;28;20202;-78
2021/03/09 07:45:41;;;;;;;1.40;1.40;;;3.50;92.80;;;;;;5035307;28;20210;-78
2021/03/09 07:48:10;;;;;;;1.27;1.27;;;3.60;92.50;;;;;;5034908;28;20237;-78
2021/03/09 07:50:39;;;;;;;1.30;1.30;;;3.50;92.70;;;;;;5034898;28;20225;-78
2021/03/09 07:53:10;;;;;;;1.20;1.20;;;3.40;92.60;;;;;;5035008;28;20190;-78
2021/03/09 07:55:37;;;;;;;1.50;1.50;;;3.70;92.70;;;;;;5035277;28;20195;-77
2021/03/09 07:58:18;;;;;;;1.40;1.40;;;3.70;92.60;;;;;;5036033;28;20194;-79
2021/03/09 08:00:49;;;;;;;1.33;1.33;;;3.80;92.10;;;;;;5034221;28;20218;-80
2021/03/09 08:03:19;;;;;;;1.10;1.10;;;3.90;91.70;;;;;;5033620;28;20282;-77
2021/03/09 08:05:51;;;;;;;1.30;1.30;;;3.80;91.60;;;;;;5034002;28;20198;-76
2021/03/09 08:08:40;;;;;;;1.40;1.40;;;3.80;91.30;;;;;;5033697;28;20203;-77
2021/03/09 08:11:06;;;;;;;1.40;1.40;;;3.80;91.20;;;;;;5033909;28;20605;-77
2021/03/09 08:13:34;;;;;;;1.10;1.10;;;3.80;91.40;;;;;;5033573;28;20198;-77
2021/03/09 08:16:32;;;;;;;1.40;1.40;;;4.00;91.50;;;;;;5034873;28;20213;-77
2021/03/09 08:19:01;;;;;;;1.20;1.20;;;4.10;91.00;;;;;;5035352;28;20217;-79
2021/03/09 08:21:52;;;;;;;1.20;1.20;;;4.20;91.00;;;;;;5035244;28;20730;-78
2021/03/09 08:24:20;;;;;;;1.10;1.10;;;4.30;90.50;;;;;;5034896;28;20260;-78
2021/03/09 08:26:50;;;;;;;1.50;1.50;;;4.40;90.60;;;;;;5035530;28;20202;-78
2021/03/09 08:29:37;;;;;;;1.30;1.30;;;4.40;90.90;;;;;;5035018;28;20269;-78
2021/03/09 08:32:27;;;;;;;1.30;1.30;;;4.40;90.80;;;;;;5034874;28;20226;-78
2021/03/09 08:35:35;;;;;;;1.30;1.30;;;4.50;90.40;;;;;;5034374;28;20202;-77
2021/03/09 08:38:21;;;;;;;1.30;1.30;;;4.40;90.60;;;;;;5034604;28;20582;-78
2021/03/09 08:41:09;;;;;;;1.23;1.23;;;4.60;90.50;;;;;;5034047;28;20226;-76
2021/03/09 08:43:40;;;;;;;1.30;1.30;;;4.70;89.70;;;;;;5033618;28;20202;-77
2021/03/09 08:46:10;;;;;;;1.30;1.30;;;4.70;88.80;;;;;;5033988;28;20203;-78
2021/03/09 08:48:50;;;;;;;1.20;1.20;;;4.70;89.40;;;;;;5033782;28;20214;-77
2021/03/09 08:51:41;;;;;;;1.20;1.20;;;4.80;89.40;;;;;;5033580;28;20318;-77
2021/03/09 08:54:38;;;;;;;1.47;1.47;;;4.90;88.70;;;;;;5025556;28;20214;-77
2021/03/09 08:57:09;;;;;;;1.20;1.20;;;5.10;89.00;;;;;;5033544;28;20675;-78
2021/03/09 08:59:37;;;;;;;1.20;1.20;;;5.10;87.70;;;;;;5033954;28;20202;-78
2021/03/09 09:02:14;;;;;;;1.40;1.40;;;5.00;88.00;;;;;;5033471;28;20222;-78
2021/03/09 09:04:43;;;;;;;1.30;1.30;;;5.00;88.10;;;;;;5033830;28;20268;-77
2021/03/09 09:07:25;;;;;;;1.20;1.20;;;5.00;89.40;;;;;;5034242;28;20236;-77
2021/03/09 09:09:54;;;;;;;1.10;1.10;;;5.10;88.00;;;;;;5034384;28;20268;-77
2021/03/09 09:12:27;;;;;;;1.20;1.20;;;5.20;88.10;;;;;;5033657;28;20230;-78
2021/03/09 09:15:19;;;;;;;1.50;1.50;;;5.20;87.80;;;;;;5033695;28;20207;-77
2021/03/09 09:17:52;;;;;;;1.27;1.27;;;5.50;88.70;;;;;;5031211;28;20212;-77
2021/03/09 09:20:23;;;;;;;1.10;1.10;;;5.50;87.70;;;;;;5033951;28;20206;-78
2021/03/09 09:22:52;;;;;;;1.13;1.13;;;5.70;90.70;;;;;;5034065;28;20230;-77
2021/03/09 09:25:20;;;;;;;1.00;1.00;;;;;;;;;;5034098;28;20733;-77
2021/03/09 09:27:49;;;;;;;1.10;1.10;;;6.30;85.40;;;;;;5033489;28;20585;-78
2021/03/09 09:30:19;;;;;;;1.20;1.20;;;6.70;99.90;;;;;;5032064;28;20198;-77
2021/03/09 09:32:56;;;;;;;1.20;1.20;;;6.70;84.20;;;;;;5031993;28;20223;-77
2021/03/09 09:35:25;;;;;;;1.10;1.10;;;6.80;83.70;;;;;;5032114;28;20293;-78
2021/03/09 09:37:55;;;;;;;1.10;1.10;;;6.70;82.80;;;;;;5032068;28;20207;-77
2021/03/09 09:40:24;;;;;;;1.00;1.00;;;6.80;99.90;;;;;;5032232;28;20202;-77
2021/03/09 09:42:55;;;;;;;1.30;1.30;;;6.60;83.00;;;;;;5032264;28;20210;-77
2021/03/09 09:45:22;;;;;;;1.10;1.10;;;6.50;82.50;;;;;;5032700;28;20190;-77
2021/03/09 09:47:51;;;;;;;1.27;1.27;;;6.60;82.80;;;;;;5032092;28;20198;-78
2021/03/09 09:50:20;;;;;;;1.13;1.13;;;6.60;99.90;;;;;;5031809;28;20256;-78
2021/03/09 09:53:01;;;;;;;1.13;1.13;;;6.70;84.30;;;;;;5032118;28;20230;-77
2021/03/09 09:55:29;;;;;;;1.00;1.00;;;6.80;82.90;;;;;;5032086;28;20256;-78
2021/03/09 09:57:58;;;;;;;1.00;1.00;;;;;;;;;;5032064;28;20209;-77
2021/03/09 10:00:27;;;;;;;1.07;1.07;;;7.40;99.90;;;;;;5032242;28;20198;-78
2021/03/09 10:03:12;;;;;;;1.00;1.00;;;7.50;80.20;;;;;;5031808;28;20630;-78
2021/03/09 10:05:41;;;;;;;1.20;1.20;;;7.60;80.40;;;;;;5032090;28;20508;-78
2021/03/09 10:08:09;;;;;;;1.10;1.10;;;;;;;;;;5031957;28;20642;-78
2021/03/09 10:10:37;;;;;;;1.00;1.00;;;7.80;99.90;;;;;;5032216;28;20219;-77
2021/03/09 10:13:21;;;;;;;0.97;0.97;;;8.00;94.60;;;;;;5031559;28;20223;-78
2021/03/09 10:15:48;;;;;;;1.00;1.00;;;8.10;96.30;;;;;;5032190;28;20202;-77
2021/03/09 10:18:23;;;;;;;1.13;1.13;;;;;;;;;;5032028;28;20253;-76
2021/03/09 10:21:04;;;;;;;1.00;1.00;;;8.30;95.80;;;;;;5035407;28;20664;-77
2021/03/09 10:23:32;;;;;;;0.80;0.80;;;8.30;95.00;;;;;;5036138;28;20214;-79
2021/03/09 10:26:04;;;;;;;1.10;1.10;;;8.30;95.50;;;;;;5036227;28;20576;-77
2021/03/09 10:28:49;;;;;;;1.10;1.10;;;8.20;95.20;;;;;;5035922;28;20203;-77
2021/03/09 10:31:16;;;;;;;1.10;1.10;;;8.10;95.00;;;;;;5037386;28;20222;-78
2021/03/09 10:34:00;;;;;;;1.30;1.30;;;8.20;95.10;;;;;;5038093;28;20233;-78
2021/03/09 10:36:27;;;;;;;1.00;1.00;;;8.40;94.10;;;;;;5036588;28;20241;-77
2021/03/09 10:39:13;;;;;;;1.03;1.03;;;8.40;93.10;;;;;;5035883;28;20255;-77
2021/03/09 10:41:39;;;;;;;1.03;1.03;;;8.50;92.80;;;;;;5036050;28;20219;-78
2021/03/09 10:44:06;;;;;;;0.90;0.90;;;8.60;93.00;;;;;;5035929;28;20675;-77
2021/03/09 10:46:36;;;;;;;1.00;1.00;;;8.60;92.10;;;;;;5035494;28;20211;-77
2021/03/09 10:49:04;;;;;;;0.90;0.90;;;8.50;92.10;;;;;;5035890;28;20198;-77
2021/03/09 10:51:31;;;;;;;1.00;1.00;;;8.50;92.00;;;;;;5035382;28;20223;-77
2021/03/09 10:53:58;;;;;;;1.00;1.00;;;8.60;91.00;;;;;;5035640;28;20202;-77
2021/03/09 10:56:27;;;;;;;1.10;1.10;;;8.60;90.30;;;;;;5035843;28;20639;-77
2021/03/09 10:58:55;;;;;;;1.00;1.00;;;8.60;88.70;;;;;;5035376;28;20203;-77
2021/03/09 11:01:22;;;;;;;1.03;1.03;;;8.50;89.00;;;;;;5035550;28;20238;-77
2021/03/09 11:03:48;;;;;;;1.00;1.00;;;8.40;88.60;;;;;;5035508;28;20202;-77
2021/03/09 11:06:16;;;;;;;1.00;1.00;;;8.50;88.20;;;;;;5035198;28;20210;-76
2021/03/09 11:08:43;;;;;;;1.20;1.20;;;8.60;90.00;;;;;;5035841;28;20636;-77
2021/03/09 11:11:10;;;;;;;0.90;0.90;;;8.30;87.50;;;;;;5036031;28;20234;-77
2021/03/09 11:13:37;;;;;;;1.03;1.03;;;8.40;86.60;;;;;;5035493;28;20202;-79
2021/03/09 11:16:04;;;;;;;1.10;1.10;;;8.50;86.60;;;;;;5036435;28;20199;-78
2021/03/09 11:18:31;;;;;;;0.90;0.90;;;8.50;86.60;;;;;;5035030;28;20211;-77
2021/03/09 11:20:58;;;;;;;1.17;1.17;;;8.50;86.90;;;;;;5034862;28;20223;-78
2021/03/09 11:23:26;;;;;;;1.08;1.08;;;8.70;86.90;;;;;;5034895;28;20714;-77
2021/03/09 11:25:53;;;;;;;1.17;1.17;;;8.50;85.30;;;;;;5035102;28;20613;-78
2021/03/09 11:28:20;;;;;;;1.00;1.00;;;8.60;83.80;;;;;;5034343;28;20198;-78
2021/03/09 11:30:46;;;;;;;0.93;0.93;;;8.40;83.20;;;;;;5034554;28;20598;-78
2021/03/09 11:33:13;;;;;;;1.00;1.00;;;8.70;85.50;;;;;;5037619;28;20222;-77
2021/03/09 11:35:40;;;;;;;1.00;1.00;;;9.50;86.50;;;;;;5038881;28;20206;-78
2021/03/09 11:38:07;;;;;;;0.90;0.90;;;9.00;92.40;;;;;;5038985;28;20253;-79
2021/03/09 11:40:35;;;;;;;1.10;1.10;;;9.00;92.50;;;;;;5037568;28;20219;-79
2021/03/09 11:43:02;;;;;;;0.90;0.90;;;9.00;93.10;;;;;;5038940;28;20257;-78
2021/03/09 11:45:29;;;;;;;1.00;1.00;;;9.00;92.30;;;;;;5037438;28;20206;-78
2021/03/09 11:47:56;;;;;;;1.10;1.10;;;9.00;93.10;;;;;;5037378;28;20228;-77
2021/03/09 11:50:23;;;;;;;0.80;0.80;;;9.00;93.10;;;;;;5020795;28;20199;-78
2021/03/09 11:52:50;;;;;;;0.80;0.80;;;9.30;91.20;;;;;;5024303;28;20636;-78
2021/03/09 11:55:17;;;;;;;0.90;0.90;;;9.00;91.80;;;;;;5009011;28;20199;-77
2021/03/09 11:57:45;;;;;;;0.90;0.90;;;9.10;91.90;;;;;;5021112;28;20199;-78
2021/03/09 12:00:13;;;;;;;0.90;0.90;;;9.00;87.60;;;;;;5017808;28;20203;-79
2021/03/09 12:02:40;;;;;;;1.10;1.10;;;9.10;55.10;;;;;;5019065;28;20203;-79
2021/03/09 12:05:08;;;;;;;0.90;0.90;;;9.30;55.00;;;;;;5015744;28;20610;-79
2021/03/09 12:07:35;;;;;;;0.70;0.70;;;9.20;54.00;;;;;;5016082;28;20203;-79
2021/03/09 12:10:02;;;;;;;0.93;0.93;;;9.10;53.20;;;;;;5016742;28;20242;-79
2021/03/09 12:12:29;;;;;;;0.90;0.90;;;9.20;52.90;;;;;;5016808;28;20231;-79
2021/03/09 12:14:56;;;;;;;0.80;0.80;;;9.40;53.00;;;;;;5016575;28;20265;-78
2021/03/09 12:17:23;;;;;;;0.90;0.90;;;9.60;51.30;;;;;;5016672;28;20203;-79
2021/03/09 12:19:50;;;;;;;0.90;0.90;;;9.60;50.90;;;;;;5018080;28;20203;-79
2021/03/09 12:22:17;;;;;;;0.90;0.90;;;9.50;50.20;;;;;;5017734;28;20223;-79
2021/03/09 12:24:44;;;;;;;0.70;0.70;;;9.70;50.80;;;;;;5018423;28;20222;-78
2021/03/09 12:27:12;;;;;;;0.70;0.70;;;9.90;49.80;;;;;;5017681;28;20273;-78
2021/03/09 12:29:38;;;;;;;0.90;0.90;;;9.90;48.90;;;;;;5018261;28;20206;-78
2021/03/09 12:32:08;;;;;;;0.70;0.70;;;9.90;49.60;;;;;;5018808;28;20684;-79
2021/03/09 12:34:35;;;;;;;0.93;0.93;;;10.00;49.60;;;;;;5017083;28;20277;-78
2021/03/09 12:37:02;;;;;;;1.00;1.00;;;9.90;48.70;;;;;;5018245;28;20210;-78
2021/03/09 12:39:28;;;;;;;0.80;0.80;;;9.80;50.10;;;;;;5017557;28;20203;-79
2021/03/09 12:41:56;;;;;;;0.90;0.90;;;9.90;49.40;;;;;;5017830;28;20219;-79
2021/03/09 12:44:25;;;;;;;0.80;0.80;;;10.00;49.00;;;;;;5019240;28;20222;-77
2021/03/09 12:46:52;;;;;;;1.00;1.00;;;10.00;48.10;;;;;;5016124;28;20683;-78
2021/03/09 12:49:20;;;;;;;0.77;0.77;;;10.10;48.90;;;;;;5012960;28;20208;-78
2021/03/09 12:51:47;;;;;;;0.95;0.95;;;10.20;47.80;;;;;;5013010;28;20235;-78
2021/03/09 12:54:14;;;;;;;0.90;0.90;;;10.20;47.90;;;;;;5013115;28;20718;-79
2021/03/09 12:56:41;;;;;;;0.70;0.70;;;10.30;48.30;;;;;;5013135;28;20234;-77
2021/03/09 12:59:08;;;;;;;0.80;0.80;;;10.30;47.60;;;;;;5013038;28;20273;-78
2021/03/09 13:01:34;;;;;;;0.60;0.60;;;10.30;47.10;;;;;;5012737;28;20227;-78
2021/03/09 13:04:02;;;;;;;0.80;0.80;;;10.30;47.60;;;;;;5013033;28;20403;-77
2021/03/09 13:06:29;;;;;;;0.90;0.90;;;10.30;50.90;;;;;;5013051;28;20206;-79
2021/03/09 13:08:57;;;;;;;0.90;0.90;;;10.10;47.60;;;;;;5012888;28;20211;-78
2021/03/09 13:11:24;;;;;;;0.80;0.80;;;10.00;48.30;;;;;;5012430;28;20237;-77
2021/03/09 13:13:55;;;;;;;0.85;0.85;;;9.90;48.20;;;;;;5012749;28;20634;-78
2021/03/09 13:16:22;;;;;;;0.80;0.80;;;10.00;48.70;;;;;;5012646;28;20634;-78
2021/03/09 13:18:49;;;;;;;0.70;0.70;;;10.10;50.10;;;;;;5012961;28;20226;-78
2021/03/09 13:21:17;;;;;;;0.80;0.80;;;10.00;48.40;;;;;;5012526;28;20219;-78
2021/03/09 13:23:45;;;;;;;0.85;0.85;;;10.00;47.50;;;;;;5012770;28;20613;-77
2021/03/09 13:26:12;;;;;;;0.90;0.90;;;10.00;49.10;;;;;;5012555;28;20214;-78
2021/03/09 13:28:40;;;;;;;0.80;0.80;;;9.90;48.60;;;;;;5012498;28;20254;-77
2021/03/09 13:31:07;;;;;;;0.70;0.70;;;9.70;47.90;;;;;;5013312;28;20585;-78
2021/03/09 13:33:34;;;;;;;0.80;0.80;;;9.50;49.80;;;;;;5012175;28;20273;-78
2021/03/09 13:36:01;;;;;;;0.88;0.88;;;9.40;49.70;;;;;;5012729;28;20211;-78
2021/03/09 13:38:28;;;;;;;0.90;0.90;;;9.40;48.20;;;;;;5012352;28;20199;-77
2021/03/09 13:40:55;;;;;;;1.00;1.00;;;9.20;48.90;;;;;;5012350;28;20223;-77
2021/03/09 13:43:23;;;;;;;0.90;0.90;;;9.10;48.70;;;;;;5012360;28;20207;-77
2021/03/09 13:45:50;;;;;;;1.10;1.10;;;9.10;49.40;;;;;;5013496;28;20203;-77
2021/03/09 13:48:17;;;;;;;0.90;0.90;;;8.90;49.60;;;;;;5012994;28;20245;-77
2021/03/09 13:50:59;;;;;;;0.90;0.90;;;8.80;49.50;;;;;;5012596;28;20302;-77
2021/03/09 13:53:26;;;;;;;0.90;0.90;;;8.70;51.00;;;;;;5012055;28;20227;-77
2021/03/09 13:55:53;;;;;;;1.13;1.13;;;8.80;50.50;;;;;;5015870;28;20259;-77
2021/03/09 13:58:20;;;;;;;1.00;1.00;;;8.70;50.60;;;;;;5009953;28;20212;-78
2021/03/09 14:00:47;;;;;;;1.00;1.00;;;8.90;51.10;;;;;;4998463;28;20219;-78
2021/03/09 14:03:14;;;;;;;0.98;0.98;;;8.90;50.30;;;;;;5005637;28;20245;-78
2021/03/09 14:05:41;;;;;;;1.00;1.00;;;8.90;50.00;;;;;;4998699;28;20200;-78
2021/03/09 14:08:08;;;;;;;0.90;0.90;;;8.90;51.20;;;;;;5000164;28;20701;-78
2021/03/09 14:10:38;;;;;;;1.05;1.05;;;8.90;50.60;;;;;;4997143;28;20224;-78
2021/03/09 14:13:05;;;;;;;0.90;0.90;;;8.90;51.20;;;;;;4998049;28;20224;-79
2021/03/09 14:15:32;;;;;;;1.00;1.00;;;8.90;51.20;;;;;;4998580;28;20556;-78
2021/03/09 14:17:59;;;;;;;1.00;1.00;;;8.80;51.30;;;;;;5009680;28;20230;-79
2021/03/09 14:20:26;;;;;;;0.80;0.80;;;8.90;90.50;;;;;;5005014;28;20199;-77
2021/03/09 14:22:53;;;;;;;0.93;0.93;;;8.90;51.40;;;;;;5011949;28;20723;-77
2021/03/09 14:25:20;;;;;;;0.80;0.80;;;8.90;50.60;;;;;;5013260;28;20262;-78
2021/03/09 14:27:47;;;;;;;1.03;1.03;;;8.90;51.30;;;;;;5012757;28;20283;-78
2021/03/09 14:30:16;;;;;;;1.15;1.15;;;8.80;91.30;;;;;;5012884;28;20277;-78
2021/03/09 14:32:44;;;;;;;1.15;1.15;;;8.80;51.70;;;;;;5013081;28;20265;-78
2021/03/09 14:35:13;;;;;;;1.00;1.00;;;8.90;52.10;;;;;;5012073;28;20207;-77
2021/03/09 14:37:40;;;;;;;1.10;1.10;;;8.90;50.60;;;;;;5011832;28;20269;-77
2021/03/09 14:40:10;;;;;;;0.70;0.70;;;9.00;50.90;;;;;;5012808;28;20207;-78
2021/03/09 14:42:37;;;;;;;0.90;0.90;;;9.00;50.80;;;;;;5012364;28;20273;-78
2021/03/09 14:45:06;;;;;;;1.00;1.00;;;9.10;50.00;;;;;;5012089;28;20643;-77
2021/03/09 14:47:33;;;;;;;0.90;0.90;;;9.00;49.80;;;;;;5011266;28;20207;-77
2021/03/09 14:50:00;;;;;;;0.85;0.85;;;8.90;49.60;;;;;;5011271;28;20211;-77
2021/03/09 14:52:27;;;;;;;1.00;1.00;;;8.90;50.50;;;;;;5011234;28;20293;-77
2021/03/09 14:54:54;;;;;;;0.90;0.90;;;9.00;50.10;;;;;;5010951;28;20207;-77
2021/03/09 14:57:21;;;;;;;0.90;0.90;;;9.00;50.30;;;;;;5011741;28;20203;-77
2021/03/09 14:59:48;;;;;;;1.10;1.10;;;9.00;50.20;;;;;;5011528;28;20199;-75
2021/03/09 15:02:16;;;;;;;1.13;1.13;;;9.10;50.80;;;;;;5012367;28;20224;-76
2021/03/09 15:04:43;;;;;;;1.08;1.08;;;9.20;51.70;;;;;;5013722;28;20281;-77
2021/03/09 15:07:11;;;;;;;1.00;1.00;;;9.30;50.60;;;;;;5016234;28;20203;-77
2021/03/09 15:09:38;;;;;;;0.98;0.98;;;9.40;49.20;;;;;;5016848;28;20203;-77
2021/03/09 15:12:06;;;;;;;0.90;0.90;;;9.50;49.10;;;;;;5016508;28;20235;-78
2021/03/09 15:14:34;;;;;;;1.00;1.00;;;9.40;48.10;;;;;;5019376;28;20206;-79
2021/03/09 15:17:01;;;;;;;1.00;1.00;;;9.50;48.50;;;;;;5018532;28;20213;-78
2021/03/09 15:19:28;;;;;;;0.98;0.98;;;9.20;49.20;;;;;;5018529;28;20227;-77
2021/03/09 15:21:55;;;;;;;0.80;0.80;;;9.30;49.50;;;;;;5017820;28;20695;-80
2021/03/09 15:24:24;;;;;;;0.80;0.80;;;9.40;48.80;;;;;;5018892;28;20203;-79
2021/03/09 15:26:51;;;;;;;1.10;1.10;;;9.50;48.70;;;;;;5018811;28;20778;-78
2021/03/09 15:29:18;;;;;;;0.95;0.95;;;9.50;49.20;;;;;;5017114;28;20199;-77
2021/03/09 15:31:53;;;;;;;1.00;1.00;;;9.70;48.00;;;;;;5016020;28;20231;-78
2021/03/09 15:34:20;;;;;;;0.82;0.82;;;9.70;47.90;;;;;;5016074;28;20203;-77
2021/03/09 15:36:47;;;;;;;1.00;1.00;;;9.70;47.80;;;;;;5015592;28;20242;-77
2021/03/09 15:39:14;;;;;;;0.90;0.90;;;9.80;47.70;;;;;;5017175;28;20230;-78
2021/03/09 15:41:41;;;;;;;0.70;0.70;;;9.80;47.80;;;;;;5017353;28;20704;-78
2021/03/09 15:44:08;;;;;;;0.80;0.80;;;9.80;47.60;;;;;;5021082;28;20657;-81
2021/03/09 15:46:35;;;;;;;0.98;0.98;;;9.70;48.00;;;;;;5020412;28;20214;-79
2021/03/09 15:49:03;;;;;;;0.90;0.90;;;9.60;46.40;;;;;;5021962;28;20199;-79
2021/03/09 15:51:30;;;;;;;1.00;1.00;;;9.60;47.00;;;;;;5021034;28;20234;-79
2021/03/09 15:53:57;;;;;;;0.88;0.88;;;9.60;47.20;;;;;;5020754;28;20231;-79
2021/03/09 15:56:24;;;;;;;1.10;1.10;;;9.50;47.30;;;;;;5020438;28;20277;-78
2021/03/09 15:58:58;;;;;;;0.80;0.80;;;9.60;47.30;;;;;;5016986;28;20198;-78
2021/03/09 16:01:25;;;;;;;0.80;0.80;;;9.60;47.20;;;;;;5015905;28;20250;-78
2021/03/09 16:03:52;;;;;;;0.85;0.85;;;9.60;47.10;;;;;;5015671;28;20238;-79
2021/03/09 16:06:19;;;;;;;0.80;0.80;;;9.40;47.10;;;;;;5015153;28;20203;-78
2021/03/09 16:08:46;;;;;;;1.00;1.00;;;9.40;47.50;;;;;;5016016;28;20203;-78
2021/03/09 16:11:13;;;;;;;0.90;0.90;;;9.30;48.60;;;;;;5015711;28;20227;-76
2021/03/09 16:13:41;;;;;;;0.90;0.90;;;9.00;48.60;;;;;;5015269;28;20621;-79
2021/03/09 16:16:09;;;;;;;1.00;1.00;;;9.00;49.70;;;;;;5015274;28;20253;-79
2021/03/09 16:18:36;;;;;;;1.00;1.00;;;8.80;49.00;;;;;;4995738;28;20227;-78
2021/03/09 16:21:03;;;;;;;1.03;1.03;;;8.70;50.40;;;;;;4996493;28;20228;-79
2021/03/09 16:23:30;;;;;;;1.10;1.10;;;8.50;60.60;;;;;;4996141;28;20196;-80
2021/03/09 16:25:57;;;;;;;1.00;1.00;;;;;;;;;;4996774;28;20208;-79
2021/03/09 16:28:25;;;;;;;1.00;1.00;;;8.20;51.70;;;;;;4996704;28;20207;-78
2021/03/09 16:30:52;;;;;;;1.20;1.20;;;8.10;51.40;;;;;;4996333;28;20227;-78
2021/03/09 16:33:20;;;;;;;0.90;0.90;;;8.00;52.30;;;;;;4995085;28;20227;-79
2021/03/09 16:35:47;;;;;;;0.90;0.90;;;7.90;53.00;;;;;;4995092;28;20283;-77
2021/03/09 16:38:15;;;;;;;1.00;1.00;;;7.90;53.80;;;;;;4997434;28;20215;-79
2021/03/09 16:40:41;;;;;;;0.90;0.90;;;7.80;53.10;;;;;;4997336;28;20640;-78
2021/03/09 16:43:08;;;;;;;0.90;0.90;;;7.60;53.00;;;;;;4997082;28;20204;-78
2021/03/09 16:45:35;;;;;;;0.90;0.90;;;7.60;55.20;;;;;;4998510;28;20211;-80
2021/03/09 16:48:03;;;;;;;0.90;0.90;;;;;;;;;;4998606;28;20204;-78
2021/03/09 16:50:31;;;;;;;0.90;0.90;;;7.40;90.80;;;;;;4998006;28;20203;-78
2021/03/09 16:52:58;;;;;;;1.00;1.00;;;7.30;54.70;;;;;;4997539;28;20220;-78
2021/03/09 16:55:25;;;;;;;0.93;0.93;;;7.20;54.90;;;;;;4997365;28;20208;-78
2021/03/09 16:57:52;;;;;;;1.20;1.20;;;7.00;55.50;;;;;;4998273;28;20278;-78
2021/03/09 17:00:20;;;;;;;1.00;1.00;;;6.90;93.70;;;;;;4997027;28;20208;-78
2021/03/09 17:02:47;;;;;;;1.10;1.10;;;6.80;57.00;;;;;;4993872;28;20705;-78
2021/03/09 17:05:14;;;;;;;1.20;1.20;;;6.70;57.10;;;;;;5015420;28;20205;-79
2021/03/09 17:07:42;;;;;;;1.27;1.27;;;6.70;58.10;;;;;;5022767;28;20200;-77
2021/03/09 17:10:10;;;;;;;1.00;1.00;;;6.70;58.50;;;;;;5031284;28;20198;-77
2021/03/09 17:12:38;;;;;;;1.07;1.07;;;6.60;59.60;;;;;;5036149;28;20230;-78
2021/03/09 17:15:07;;;;;;;1.00;1.00;;;6.50;58.70;;;;;;5036352;28;20580;-77
2021/03/09 17:17:34;;;;;;;1.10;1.10;;;6.50;59.70;;;;;;5035270;28;20583;-78
2021/03/09 17:20:01;;;;;;;1.00;1.00;;;6.50;59.70;;;;;;5032666;28;20206;-77
2021/03/09 17:22:28;;;;;;;1.00;1.00;;;6.50;60.10;;;;;;5031807;28;20991;-77
2021/03/09 17:24:55;;;;;;;0.90;0.90;;;6.40;61.00;;;;;;5033118;28;20198;-78
2021/03/09 17:27:32;;;;;;;1.07;1.07;;;6.30;61.50;;;;;;5033036;28;20218;-78
2021/03/09 17:30:12;;;;;;;1.07;1.07;;;6.30;61.90;;;;;;5033086;28;20302;-77
2021/03/09 17:32:39;;;;;;;1.13;1.13;;;6.30;62.50;;;;;;5032472;28;20226;-77
2021/03/09 17:35:09;;;;;;;1.10;1.10;;;6.30;62.70;;;;;;5032803;28;20245;-77
2021/03/09 17:37:36;;;;;;;1.10;1.10;;;6.20;63.50;;;;;;5034797;28;20210;-77
2021/03/09 17:40:06;;;;;;;0.90;0.90;;;6.10;63.20;;;;;;5005656;28;20214;-77
2021/03/09 17:42:35;;;;;;;1.10;1.10;;;6.10;62.80;;;;;;5001821;28;20215;-79
2021/03/09 17:45:04;;;;;;;1.07;1.07;;;6.10;63.20;;;;;;5015521;28;20239;-77
2021/03/09 17:47:31;;;;;;;1.13;1.13;;;6.10;64.50;;;;;;5014088;28;20207;-77
2021/03/09 17:50:00;;;;;;;1.10;1.10;;;6.00;64.30;;;;;;5014092;28;20442;-78
2021/03/09 17:52:28;;;;;;;1.10;1.10;;;6.00;70.40;;;;;;5009634;28;20598;-79
2021/03/09 17:54:55;;;;;;;1.10;1.10;;;5.80;65.20;;;;;;5010235;28;20200;-79
2021/03/09 17:57:24;;;;;;;1.30;1.30;;;5.90;67.00;;;;;;5016626;28;20249;-80
2021/03/09 17:59:51;;;;;;;0.97;0.97;;;5.80;67.30;;;;;;5016089;28;20271;-80
2021/03/09 18:02:18;;;;;;;1.17;1.17;;;5.50;68.70;;;;;;5014648;28;20222;-78
2021/03/09 18:04:46;;;;;;;1.10;1.10;;;5.80;69.30;;;;;;5004610;28;20199;-79
2021/03/09 18:07:14;;;;;;;1.10;1.10;;;5.70;72.00;;;;;;5016346;28;20203;-78
2021/03/09 18:09:41;;;;;;;1.10;1.10;;;5.80;77.20;;;;;;5025036;28;20198;-78
2021/03/09 18:12:09;;;;;;;0.97;0.97;;;5.80;78.70;;;;;;5024365;28;20250;-78
2021/03/09 18:14:37;;;;;;;1.00;1.00;;;5.80;77.80;;;;;;5028037;28;20226;-78
2021/03/09 18:17:04;;;;;;;1.10;1.10;;;5.80;78.20;;;;;;5034787;28;20207;-79
2021/03/09 18:19:32;;;;;;;1.00;1.00;;;5.70;78.40;;;;;;5034820;28;20675;-80